createdAt,value
2022-10-04T00:00:24.152Z,13.45
2022-10-04T00:02:53.599Z,13.60
2022-10-04T00:05:24.088Z,14.10
2022-10-04T00:07:58.707Z,12.95
2022-10-04T00:10:34.147Z,12.30
2022-10-04T00:13:07.904Z,13.57
2022-10-04T00:15:37.371Z,15.95
2022-10-04T00:18:28.718Z,15.63
2022-10-04T00:20:58.765Z,14.63
2022-10-04T00:23:25.324Z,15.18
2022-10-04T00:26:02.926Z,13.15
2022-10-04T00:28:39.846Z,11.07
2022-10-04T00:31:12.464Z,11.38
2022-10-04T00:33:40.505Z,12.55
2022-10-04T00:36:30.376Z,13.20
2022-10-04T00:39:09.398Z,13.93
2022-10-04T00:41:48.034Z,14.55
2022-10-04T00:44:21.489Z,13.75
2022-10-04T00:46:49.460Z,12.52
2022-10-04T00:49:20.919Z,13.45
2022-10-04T00:51:56.038Z,13.55
2022-10-04T00:54:36.906Z,13.07
2022-10-04T00:57:08.387Z,13.93
2022-10-04T00:59:59.139Z,14.27
2022-10-04T01:02:47.652Z,15.82
2022-10-04T01:05:19.726Z,15.93
2022-10-04T01:07:55.719Z,15.57
2022-10-04T01:10:25.308Z,17.25
2022-10-04T01:13:04.498Z,15.13
2022-10-04T01:15:48.455Z,15.85
2022-10-04T01:18:19.655Z,13.90
2022-10-04T01:20:54.672Z,13.43
2022-10-04T01:26:26.349Z,13.70
2022-10-04T01:28:54.237Z,15.65
2022-10-04T01:31:21.687Z,16.92
2022-10-04T01:33:48.678Z,14.90
2022-10-04T01:36:15.490Z,15.70
2022-10-04T01:38:42.296Z,16.17
2022-10-04T01:41:11.739Z,18.33
2022-10-04T01:43:41.170Z,16.23
2022-10-04T01:46:16.721Z,15.80
2022-10-04T01:48:45.714Z,16.63
2022-10-04T01:51:24.802Z,15.07
2022-10-04T01:54:00.144Z,16.40
2022-10-04T01:56:41.631Z,16.52
2022-10-04T01:59:15.719Z,14.55
2022-10-04T02:01:55.197Z,15.40
2022-10-04T02:04:27.528Z,15.50
2022-10-04T02:07:10.363Z,16.00
2022-10-04T02:09:42.464Z,15.98
2022-10-04T02:12:10.318Z,15.20
2022-10-04T02:14:39.105Z,17.95
2022-10-04T02:17:10.417Z,15.93
2022-10-04T02:19:41.249Z,15.40
2022-10-04T02:22:10.438Z,18.83
2022-10-04T02:24:44.210Z,17.80
2022-10-04T02:27:11.979Z,18.65
2022-10-04T02:29:38.707Z,17.30
2022-10-04T02:32:26.896Z,18.10
2022-10-04T02:34:55.760Z,17.67
2022-10-04T02:37:24.579Z,17.67
2022-10-04T02:39:58.342Z,18.15
2022-10-04T02:42:25.408Z,15.80
2022-10-04T02:45:09.872Z,16.13
2022-10-04T02:47:51.648Z,18.20
2022-10-04T02:50:26.774Z,18.63
2022-10-04T02:53:01.383Z,17.83
2022-10-04T02:55:31.032Z,18.05
2022-10-04T02:57:58.664Z,18.30
2022-10-04T03:00:30.591Z,19.63
2022-10-04T03:03:35.042Z,17.52
2022-10-04T03:06:08.613Z,17.77
2022-10-04T03:08:50.034Z,17.52
2022-10-04T03:11:22.521Z,16.00
2022-10-04T03:13:52.834Z,16.73
2022-10-04T03:16:20.792Z,15.52
2022-10-04T03:18:50.034Z,17.13
2022-10-04T03:21:20.653Z,16.00
2022-10-04T03:23:50.184Z,17.40
2022-10-04T03:26:35.769Z,15.55
2022-10-04T03:29:09.460Z,17.13
2022-10-04T03:31:47.095Z,17.38
2022-10-04T03:34:21.370Z,18.35
2022-10-04T03:36:49.574Z,18.50
2022-10-04T03:39:26.782Z,17.80
2022-10-04T03:41:54.233Z,18.85
2022-10-04T03:44:24.140Z,17.77
2022-10-04T03:46:51.118Z,18.92
2022-10-04T03:49:33.429Z,18.60
2022-10-04T03:52:00.976Z,19.60
2022-10-04T03:54:29.026Z,18.85
2022-10-04T03:56:56.994Z,18.20
2022-10-04T03:59:26.424Z,19.02
2022-10-04T04:02:12.448Z,20.05
2022-10-04T04:04:44.062Z,19.65
2022-10-04T04:07:43.366Z,19.33
2022-10-04T04:10:17.478Z,18.58
2022-10-04T04:12:58.507Z,19.93
2022-10-04T04:15:30.338Z,20.95
2022-10-04T04:18:22.128Z,20.15
2022-10-04T04:20:51.786Z,19.92
2022-10-04T04:23:34.139Z,19.05
2022-10-04T04:26:25.170Z,20.20
2022-10-04T04:28:56.530Z,19.35
2022-10-04T04:31:31.601Z,20.45
2022-10-04T04:34:01.120Z,21.20
2022-10-04T04:36:32.357Z,20.40
2022-10-04T04:39:32.297Z,19.85
2022-10-04T04:41:59.922Z,19.35
2022-10-04T04:44:27.010Z,20.45
2022-10-04T04:46:56.214Z,18.95
2022-10-04T04:49:24.066Z,20.98
2022-10-04T04:51:52.276Z,20.70
2022-10-04T04:54:23.803Z,21.05
2022-10-04T04:56:53.035Z,21.70
2022-10-04T04:59:22.589Z,20.20
2022-10-04T05:01:50.227Z,21.88
2022-10-04T05:04:24.434Z,20.52
2022-10-04T05:07:00.869Z,20.63
2022-10-04T05:09:37.064Z,17.13
2022-10-04T05:12:23.532Z,15.10
2022-10-04T05:14:56.554Z,15.07
2022-10-04T05:17:27.698Z,17.42
2022-10-04T05:19:58.565Z,19.13
2022-10-04T05:22:26.857Z,18.75
2022-10-04T05:24:57.810Z,20.88
2022-10-04T05:27:38.737Z,20.65
2022-10-04T05:30:30.492Z,22.83
2022-10-04T05:33:03.210Z,20.92
2022-10-04T05:35:38.428Z,21.00
2022-10-04T05:38:39.316Z,20.58
2022-10-04T05:41:35.471Z,21.25
2022-10-04T05:44:04.840Z,20.80
2022-10-04T05:46:34.578Z,21.52
2022-10-04T05:49:19.374Z,20.27
2022-10-04T05:51:56.118Z,18.88
2022-10-04T05:54:25.144Z,20.42
2022-10-04T05:57:10.120Z,21.73
2022-10-04T06:00:00.526Z,20.65
2022-10-04T06:03:03.737Z,20.10
2022-10-04T06:05:54.073Z,20.50
2022-10-04T06:08:51.501Z,21.55
2022-10-04T06:11:38.004Z,21.30
2022-10-04T06:14:30.573Z,23.17
2022-10-04T06:17:40.594Z,23.33
2022-10-04T06:20:10.129Z,25.10
2022-10-04T06:22:46.894Z,24.73
2022-10-04T06:25:42.315Z,25.75
2022-10-04T06:28:14.889Z,25.23
2022-10-04T06:31:00.302Z,23.45
2022-10-04T06:33:43.987Z,24.55
2022-10-04T06:36:28.995Z,24.90
2022-10-04T06:39:20.040Z,24.83
2022-10-04T06:42:12.089Z,23.88
2022-10-04T06:44:53.847Z,24.13
2022-10-04T06:47:23.442Z,23.90
2022-10-04T06:50:14.222Z,24.65
2022-10-04T06:52:46.067Z,23.38
2022-10-04T06:55:40.453Z,23.67
2022-10-04T06:58:19.374Z,22.77
2022-10-04T07:00:56.743Z,23.05
2022-10-04T07:03:30.844Z,24.67
2022-10-04T07:06:07.132Z,26.17
2022-10-04T07:08:36.828Z,25.33
2022-10-04T07:11:12.425Z,26.90
2022-10-04T07:13:52.255Z,24.42
2022-10-04T07:16:29.863Z,26.45
2022-10-04T07:18:59.506Z,25.35
2022-10-04T07:21:37.546Z,23.48
2022-10-04T07:24:08.919Z,22.88
2022-10-04T07:26:52.829Z,20.45
2022-10-04T07:29:31.754Z,20.17
2022-10-04T07:32:05.458Z,21.42
2022-10-04T07:34:46.971Z,18.88
2022-10-04T07:37:14.995Z,18.23
2022-10-04T07:40:08.546Z,17.80
2022-10-04T07:42:46.298Z,16.17
2022-10-04T07:45:17.585Z,17.25
2022-10-04T07:47:44.788Z,16.20
2022-10-04T07:50:25.508Z,16.55
2022-10-04T07:52:54.563Z,16.42
2022-10-04T07:55:56.520Z,15.75
2022-10-04T07:58:23.253Z,13.90
2022-10-04T08:01:01.069Z,16.08
2022-10-04T08:03:39.711Z,15.57
2022-10-04T08:06:23.085Z,16.60
2022-10-04T08:09:20.759Z,16.60
2022-10-04T08:12:07.400Z,17.20
2022-10-04T08:14:40.074Z,17.50
2022-10-04T08:17:26.082Z,19.75
2022-10-04T08:19:55.779Z,20.73
2022-10-04T08:22:33.636Z,20.08
2022-10-04T08:25:20.904Z,19.17
2022-10-04T08:28:16.814Z,18.58
2022-10-04T08:34:04.417Z,18.30
2022-10-04T08:36:43.621Z,18.85
2022-10-04T08:39:42.437Z,19.00
2022-10-04T08:42:46.980Z,19.30
2022-10-04T08:45:38.372Z,19.75
2022-10-04T08:48:22.533Z,20.33
2022-10-04T08:51:01.143Z,20.00
2022-10-04T08:53:49.015Z,21.42
2022-10-04T08:56:46.261Z,21.42
2022-10-04T08:59:24.958Z,20.75
2022-10-04T09:01:52.327Z,20.52
2022-10-04T09:04:41.247Z,20.45
2022-10-04T09:07:34.206Z,21.52
2022-10-04T09:10:28.910Z,21.95
2022-10-04T09:13:36.279Z,21.38
2022-10-04T09:16:17.451Z,21.17
2022-10-04T09:18:51.854Z,21.92
2022-10-04T09:21:45.325Z,21.88
2022-10-04T09:24:32.928Z,21.83
2022-10-04T09:27:23.098Z,22.27
2022-10-04T09:30:19.633Z,21.42
2022-10-04T09:32:49.243Z,21.25
2022-10-04T09:36:03.286Z,22.08
2022-10-04T09:39:05.886Z,22.00
2022-10-04T09:41:52.852Z,21.10
2022-10-04T09:44:46.521Z,22.00
2022-10-04T09:47:31.022Z,21.45
2022-10-04T09:50:37.131Z,21.02
2022-10-04T09:53:28.533Z,21.40
2022-10-04T09:56:28.819Z,21.25
2022-10-04T09:59:18.433Z,21.67
2022-10-04T10:02:00.094Z,22.08
2022-10-04T10:05:03.063Z,21.88
2022-10-04T10:08:03.929Z,21.55
2022-10-04T10:11:10.495Z,22.10
2022-10-04T10:14:16.175Z,21.73
2022-10-04T10:17:14.553Z,21.85
2022-10-04T10:20:19.643Z,21.50
2022-10-04T10:23:30.306Z,22.35
2022-10-04T10:26:23.956Z,21.95
2022-10-04T10:29:02.211Z,22.08
2022-10-04T10:31:41.932Z,21.75
2022-10-04T10:34:24.939Z,22.42
2022-10-04T10:37:09.807Z,22.67
2022-10-04T10:40:14.305Z,21.95
2022-10-04T10:43:03.041Z,21.67
2022-10-04T10:45:48.276Z,23.15
2022-10-04T10:48:40.286Z,23.50
2022-10-04T10:51:18.422Z,23.15
2022-10-04T10:54:09.306Z,23.15
2022-10-04T10:56:38.705Z,22.95
2022-10-04T10:59:54.794Z,23.35
2022-10-04T11:02:50.003Z,22.58
2022-10-04T11:05:48.115Z,23.00
2022-10-04T11:08:36.642Z,21.92
2022-10-04T11:11:18.550Z,22.10
2022-10-04T11:14:22.213Z,22.48
2022-10-04T11:17:10.522Z,22.05
2022-10-04T11:20:24.554Z,23.60
2022-10-04T11:23:25.323Z,23.20
2022-10-04T11:26:07.739Z,23.23
2022-10-04T11:29:10.198Z,22.70
2022-10-04T11:31:43.693Z,22.95
2022-10-04T11:34:50.653Z,23.05
2022-10-04T11:37:43.514Z,23.10
2022-10-04T11:40:12.970Z,22.65
2022-10-04T11:43:17.448Z,23.73
2022-10-04T11:45:44.616Z,22.88
2022-10-04T11:48:43.229Z,23.38
2022-10-04T11:51:48.539Z,24.50
2022-10-04T11:54:47.724Z,25.07
2022-10-04T11:57:42.067Z,24.75
2022-10-04T12:00:23.773Z,24.63
2022-10-04T12:03:05.463Z,23.83
2022-10-04T12:05:49.372Z,23.95
2022-10-04T12:08:31.189Z,23.73
2022-10-04T12:11:15.974Z,23.55
2022-10-04T12:14:16.962Z,23.63
2022-10-04T12:17:08.426Z,24.45
2022-10-04T12:20:16.180Z,23.15
2022-10-04T12:23:15.222Z,23.75
2022-10-04T12:25:53.616Z,23.98
2022-10-04T12:28:34.812Z,23.58
2022-10-04T12:31:10.486Z,24.30
2022-10-04T12:33:40.016Z,23.55
2022-10-04T12:36:39.315Z,24.20
2022-10-04T12:39:30.914Z,23.02
2022-10-04T12:42:22.377Z,23.13
2022-10-04T12:45:33.941Z,23.95
2022-10-04T12:48:13.114Z,23.83
2022-10-04T12:50:45.501Z,23.67
2022-10-04T12:53:23.764Z,24.38
2022-10-04T12:56:22.189Z,23.98
2022-10-04T12:59:00.487Z,23.60
2022-10-04T13:01:39.394Z,23.10
2022-10-04T13:04:44.316Z,23.52
2022-10-04T13:07:23.709Z,24.88
2022-10-04T13:10:24.112Z,23.00
2022-10-04T13:13:12.857Z,23.63
2022-10-04T13:19:09.275Z,22.55
2022-10-04T13:21:36.309Z,21.88
2022-10-04T13:24:31.897Z,22.45
2022-10-04T13:27:08.773Z,21.77
2022-10-04T13:30:13.213Z,22.38
2022-10-04T13:33:26.242Z,21.20
2022-10-04T13:36:08.609Z,22.27
2022-10-04T13:39:03.603Z,22.40
2022-10-04T13:41:42.781Z,22.48
2022-10-04T13:44:27.754Z,21.77
2022-10-04T13:47:04.891Z,22.05
2022-10-04T13:49:56.446Z,22.83
2022-10-04T13:53:06.114Z,22.02
2022-10-04T13:56:06.926Z,21.85
2022-10-04T13:58:57.614Z,21.25
2022-10-04T14:01:41.080Z,21.65
2022-10-04T14:04:29.235Z,21.50
2022-10-04T14:07:12.208Z,21.95
2022-10-04T14:09:57.868Z,21.58
2022-10-04T14:12:45.383Z,22.65
2022-10-04T14:15:30.133Z,22.50
2022-10-04T14:17:56.762Z,21.17
2022-10-04T14:21:06.931Z,21.35
2022-10-04T14:23:58.701Z,22.05
2022-10-04T14:26:28.492Z,21.33
2022-10-04T14:29:28.698Z,21.60
2022-10-04T14:32:04.300Z,21.65
2022-10-04T14:34:53.634Z,22.05
2022-10-04T14:37:59.855Z,22.90
2022-10-04T14:43:49.195Z,21.67
2022-10-04T14:46:46.704Z,22.58
2022-10-04T14:49:37.565Z,22.00
2022-10-04T14:52:31.207Z,21.83
2022-10-04T14:55:10.296Z,21.83
2022-10-04T14:57:49.981Z,22.67
2022-10-04T15:00:21.808Z,22.20
2022-10-04T15:03:14.961Z,23.30
2022-10-04T15:05:59.835Z,22.75
2022-10-04T15:08:54.748Z,23.92
2022-10-04T15:11:39.755Z,23.50
2022-10-04T15:15:05.261Z,23.23
2022-10-04T15:17:38.879Z,22.60
2022-10-04T15:20:20.562Z,23.17
2022-10-04T15:22:54.088Z,23.45
2022-10-04T15:26:08.109Z,23.10
2022-10-04T15:28:54.279Z,23.23
2022-10-04T15:31:37.059Z,23.35
2022-10-04T15:34:09.668Z,22.77
2022-10-04T15:36:43.587Z,23.77
2022-10-04T15:39:16.594Z,22.47
2022-10-04T15:42:00.219Z,22.13
2022-10-04T15:44:43.045Z,23.90
2022-10-04T15:47:26.866Z,23.73
2022-10-04T15:50:32.806Z,22.60
2022-10-04T15:53:37.037Z,22.90
2022-10-04T15:56:21.540Z,22.65
2022-10-04T15:59:00.084Z,23.47
2022-10-04T16:02:08.054Z,22.23
2022-10-04T16:04:57.074Z,22.40
2022-10-04T16:07:27.807Z,22.10
2022-10-04T16:10:39.407Z,23.00
2022-10-04T16:13:35.632Z,22.95
2022-10-04T16:16:25.630Z,23.48
2022-10-04T16:19:21.648Z,23.08
2022-10-04T16:21:53.146Z,24.15
2022-10-04T16:24:19.699Z,23.20
2022-10-04T16:26:53.376Z,24.38
2022-10-04T16:30:14.544Z,23.08
2022-10-04T16:32:46.315Z,23.75
2022-10-04T16:38:20.899Z,24.55
2022-10-04T16:41:09.245Z,22.75
2022-10-04T16:43:46.852Z,23.90
2022-10-04T16:46:25.439Z,27.30
2022-10-04T16:49:03.477Z,22.35
2022-10-04T16:51:50.537Z,22.35
2022-10-04T16:54:38.844Z,24.60
2022-10-04T16:57:17.993Z,23.63
2022-10-04T16:59:47.827Z,23.67
2022-10-04T17:02:45.129Z,25.77
2022-10-04T17:05:36.069Z,24.25
2022-10-04T17:08:16.325Z,24.55
2022-10-04T17:10:49.025Z,22.67
2022-10-04T17:13:24.747Z,21.38
2022-10-04T17:16:13.941Z,22.88
2022-10-04T17:19:08.382Z,20.17
2022-10-04T17:21:58.971Z,25.67
2022-10-04T17:24:52.833Z,38.30
2022-10-04T17:27:46.266Z,28.20
2022-10-04T17:30:19.911Z,31.15
2022-10-04T17:32:46.467Z,22.15
2022-10-04T17:35:50.340Z,22.25
2022-10-04T17:38:38.567Z,20.42
2022-10-04T17:41:29.756Z,26.58
2022-10-04T17:44:34.181Z,22.00
2022-10-04T17:47:50.199Z,20.75
2022-10-04T17:50:45.123Z,41.17
2022-10-04T17:53:39.350Z,23.13
2022-10-04T17:56:09.019Z,21.52
2022-10-04T17:58:44.383Z,22.88
2022-10-04T18:01:19.757Z,40.35
2022-10-04T18:04:08.961Z,25.02
2022-10-04T18:06:52.150Z,24.10
2022-10-04T18:09:33.864Z,20.48
2022-10-04T18:12:05.438Z,24.75
2022-10-04T18:14:57.447Z,26.15
2022-10-04T18:17:50.530Z,28.08
2022-10-04T18:20:22.511Z,28.02
2022-10-04T18:23:17.848Z,21.38
2022-10-04T18:25:45.797Z,20.95
2022-10-04T18:28:21.389Z,22.40
2022-10-04T18:31:32.236Z,24.00
2022-10-04T18:34:23.301Z,27.33
2022-10-04T18:37:11.613Z,21.35
2022-10-04T18:39:49.643Z,19.25
2022-10-04T18:42:35.162Z,17.33
2022-10-04T18:45:21.745Z,17.27
2022-10-04T18:47:50.753Z,17.75
2022-10-04T18:50:20.171Z,17.55
2022-10-04T18:52:55.959Z,17.05
2022-10-04T18:55:46.135Z,22.67
2022-10-04T18:58:46.780Z,21.35
2022-10-04T19:02:03.517Z,24.67
2022-10-04T19:04:59.479Z,22.00
2022-10-04T19:10:13.762Z,19.05
2022-10-04T19:13:05.812Z,19.40
2022-10-04T19:15:56.758Z,19.58
2022-10-04T19:18:26.355Z,22.00
2022-10-04T19:21:08.762Z,45.70
2022-10-04T19:23:50.560Z,24.58
2022-10-04T19:26:32.888Z,14.68
2022-10-04T19:29:19.794Z,16.38
2022-10-04T19:32:24.518Z,13.70
2022-10-04T19:34:57.073Z,38.08
2022-10-04T19:37:40.061Z,21.60
2022-10-04T19:40:24.607Z,23.50
2022-10-04T19:43:03.387Z,22.27
2022-10-04T19:45:33.258Z,21.73
2022-10-04T19:48:05.923Z,20.25
2022-10-04T19:50:39.876Z,18.35
2022-10-04T19:53:40.598Z,32.42
2022-10-04T19:56:23.618Z,25.35
2022-10-04T19:59:10.244Z,14.27
2022-10-04T20:01:38.531Z,14.48
2022-10-04T20:04:32.204Z,14.65
2022-10-04T20:07:00.676Z,13.55
2022-10-04T20:09:36.517Z,14.35
2022-10-04T20:12:05.194Z,12.45
2022-10-04T20:14:32.078Z,13.50
2022-10-04T20:17:00.624Z,13.60
2022-10-04T20:19:30.332Z,14.93
2022-10-04T20:22:28.063Z,12.95
2022-10-04T20:24:57.729Z,12.90
2022-10-04T20:27:28.415Z,11.93
2022-10-04T20:29:56.789Z,13.18
2022-10-04T20:32:26.478Z,12.25
2022-10-04T20:34:55.065Z,13.43
2022-10-04T20:37:22.015Z,12.80
2022-10-04T20:39:51.214Z,13.75
2022-10-04T20:42:28.658Z,14.20
2022-10-04T20:45:22.910Z,16.83
2022-10-04T20:47:51.205Z,20.42
2022-10-04T20:50:39.243Z,23.63
2022-10-04T20:53:14.823Z,20.58
2022-10-04T20:55:44.048Z,21.48
2022-10-04T20:58:34.898Z,17.77
2022-10-04T21:01:38.189Z,16.73
2022-10-04T21:04:18.999Z,19.20
2022-10-04T21:06:55.043Z,18.60
2022-10-04T21:09:21.993Z,26.88
2022-10-04T21:11:52.068Z,54.30
2022-10-04T21:14:23.465Z,31.73
2022-10-04T21:16:52.514Z,22.27
2022-10-04T21:19:42.950Z,18.58
2022-10-04T21:22:30.848Z,15.95
2022-10-04T21:25:06.378Z,15.52
2022-10-04T21:27:38.176Z,15.88
2022-10-04T21:30:13.611Z,14.60
2022-10-04T21:32:40.427Z,14.40
2022-10-04T21:35:08.393Z,14.70
2022-10-04T21:37:35.899Z,13.65
2022-10-04T21:40:03.620Z,13.88
2022-10-04T21:42:30.197Z,14.50
2022-10-04T21:44:56.998Z,14.32
2022-10-04T21:47:23.700Z,14.38
2022-10-04T21:49:51.740Z,15.60
2022-10-04T21:52:18.785Z,15.80
2022-10-04T21:54:45.883Z,16.05
2022-10-04T21:57:13.299Z,16.27
2022-10-04T21:59:39.994Z,15.20
2022-10-04T22:02:07.652Z,14.35
2022-10-04T22:04:34.696Z,14.68
2022-10-04T22:07:01.399Z,15.23
2022-10-04T22:09:28.986Z,15.20
2022-10-04T22:11:55.609Z,15.35
2022-10-04T22:14:22.207Z,14.90
2022-10-04T22:16:49.314Z,16.40
2022-10-04T22:19:16.492Z,16.50
2022-10-04T22:21:43.165Z,15.90
2022-10-04T22:24:18.933Z,13.82
2022-10-04T22:26:46.193Z,16.20
2022-10-04T22:29:15.124Z,15.98
2022-10-04T22:31:50.677Z,15.20
2022-10-04T22:34:19.757Z,13.20
2022-10-04T22:36:48.741Z,12.25
2022-10-04T22:39:17.803Z,13.13
2022-10-04T22:41:52.297Z,16.42
2022-10-04T22:44:22.787Z,15.18
2022-10-04T22:46:55.252Z,17.75
2022-10-04T22:49:44.384Z,16.08
2022-10-04T22:52:22.610Z,15.65
2022-10-04T22:54:51.920Z,16.55
2022-10-04T22:57:19.711Z,18.80
2022-10-04T22:59:52.778Z,17.70
2022-10-04T23:02:26.596Z,16.65
2022-10-04T23:05:00.820Z,16.52
2022-10-04T23:07:27.491Z,16.50
2022-10-04T23:09:54.060Z,17.17
2022-10-04T23:12:21.030Z,15.77
2022-10-04T23:14:47.624Z,16.45
2022-10-04T23:17:26.071Z,15.90
2022-10-04T23:19:56.362Z,15.65
2022-10-04T23:22:27.420Z,16.00
2022-10-04T23:24:55.364Z,16.33
2022-10-04T23:27:22.682Z,16.65
2022-10-04T23:29:58.944Z,13.68
2022-10-04T23:32:26.187Z,14.38
2022-10-04T23:34:56.635Z,14.63
2022-10-04T23:37:27.295Z,16.30
2022-10-04T23:39:54.061Z,16.30
2022-10-04T23:42:28.753Z,15.80
2022-10-04T23:45:00.010Z,14.32
2022-10-04T23:47:37.335Z,14.73
2022-10-04T23:50:24.874Z,15.18
2022-10-04T23:52:55.074Z,16.90
2022-10-04T23:55:26.927Z,16.33
2022-10-04T23:57:53.515Z,15.82
